Terminal Aerodrome Forecast
Issued by NWS

Home | Current Version | Previous Version | Text Only | Print | Product List | Glossary On
Versions: 1 2 3 4 5 6 7 8 9 10 11 12 13 14 15 16
000
FTUS45 KFGZ 041737
TAFSEZ
TAF
KSEZ 041737Z 0418/0518 16007KT P6SM SCT080 SCT120
     FM041900 22007KT P6SM SCT080 BKN120
      TEMPO 0420/0424 VRB10G20KT TSRA BKN080CB
     FM050300 VRB05KT P6SM FEW060 SCT110 PROB30 0504/0510 SHRA
      BKN070=

USA.gov is the U.S. government's official web portal to all federal, state and local government web resources and services.